Etusivu
METAR-TAF:

METAR-TAF

Lentoasemat :

Biskra, Algeria

Leveyspiiri: 34-48N, Pituuspiiri: 005-44E, korkeus merenpinnasta: 87 m

Tämänhetkinen sää

Tämä raportti tehtiin 33 minuuttia sitten, kello 15.00 UTC
Tuuli 3 kn etelästä/lounaasta
Lämpötila 36°C
Kosteus 24%
Ilmanpaine 1010 hPa
Näkyvyys 10 km tai enemmän
ei pilviä alle 1500 m:ssä eikä cumulonimbus-pilviä

METAR: DAUB 231500Z 21003KT CAVOK 36/12 Q1010

Aika: 16:33 (15:33 UTC)

Sääennuste

Tämä raportti tehtiin 4 tuntia ja 33 minuuttia sitten, kello 11.00 UTC
Ennuste voimassa 23. päivästä klo 12 UTC - 24. päivään klo 12 UTC
Tuuli 9 kn etelästä
Näkyvyys 10 km tai enemmän
Hajanaisia pilviä 4000 ft:n korkeudessa
Todennäköisyys 30% :
Ajoittain
23. päivästä klo 13 UTC - 23. päivään klo 20 UTC
Muutamia pilviä 3000 ft:n korkeudessa, Cumulonimbus.

TAF: DAUB 231100Z 2312/2412 17009KT 9999 SCT040 PROB30 TEMPO 2313/2320 FEW030CB

Säähavainnot ja -ennusteet yli 4000 lentoasemalta (METAR- ja TAF-raportit).

Käytössä olevat sääasemat on merkitty karttaan keltaisilla ja punaisilla pisteillä.

Aseta hiiri pisteen päälle nähdäksesi sääaseman nimen.

Klikkaa sitten nähdäksesi säähavainnot ja -ennusteet.

Kartan vaihtaminen: klikkaa mustalla rastilla varustettuja vihreitä pisteitä, niin voit zoomata sisään; viivalla varustettua vihreää pistettä, niin voit zoomata ulos tai vihreitä nuolia, niin pääset viereisille kartoille.


METAR-TAF: